Time;durP1;ratioP1;P1;durP2;ratioP2;P2;SDS_P1;SDS_P2;PMS_P1;PMS_P2;Temp;Humidity;BMP_temperature;BMP_pressure;BME280_temperature;BME280_humidity;BME280_pressure;Samples;Min_cycle;Max_cycle;Signal;HPM_P1;HPM_P2
2022/05/18 07:08:17;;;;;;;3.77;2.00;;;17.10;79.90;;;;;;5086594;23;20856;-43
2022/05/18 07:10:43;;;;;;;3.40;2.27;;;17.20;80.00;;;;;;4990672;28;20927;-47
2022/05/18 07:13:16;;;;;;;2.90;1.57;;;17.50;80.50;;;;;;4986668;28;20466;-47
2022/05/18 07:15:43;;;;;;;7.03;2.10;;;18.50;79.30;;;;;;4990238;28;20466;-49
2022/05/18 07:18:10;;;;;;;4.40;2.00;;;19.90;76.10;;;;;;4991383;28;20502;-50
2022/05/18 07:20:38;;;;;;;5.77;2.53;;;21.30;71.10;;;;;;4994257;28;20494;-51
2022/05/18 07:23:05;;;;;;;6.03;2.93;;;22.80;68.40;;;;;;4990703;28;20458;-49
2022/05/18 07:25:34;;;;;;;3.37;2.07;;;24.30;63.00;;;;;;4970801;28;20502;-53
2022/05/18 07:28:01;;;;;;;4.97;2.77;;;25.60;56.50;;;;;;4992829;28;20439;-53
2022/05/18 07:30:28;;;;;;;3.80;2.50;;;26.50;54.50;;;;;;4993140;28;20462;-44
2022/05/18 07:32:54;;;;;;;3.30;2.70;;;27.20;51.10;;;;;;4992108;28;20487;-51
2022/05/18 07:35:21;;;;;;;2.60;2.40;;;28.10;48.90;;;;;;4993398;28;20490;-46
2022/05/18 07:37:47;;;;;;;5.67;2.60;;;28.60;46.60;;;;;;4995771;28;20435;-49
2022/05/18 07:40:14;;;;;;;3.40;2.53;;;29.30;45.30;;;;;;4990836;28;20466;-54
2022/05/18 07:42:42;;;;;;;5.43;2.23;;;30.00;43.70;;;;;;4982605;28;20479;-53
2022/05/18 07:45:10;;;;;;;3.43;2.53;;;30.60;42.10;;;;;;4978449;28;20434;-44
2022/05/18 07:47:39;;;;;;;3.90;2.90;;;30.90;41.60;;;;;;4991905;28;20462;-54
2022/05/18 07:50:06;;;;;;;4.37;3.97;;;31.50;41.00;;;;;;4991766;28;20536;-52
2022/05/18 07:52:33;;;;;;;3.70;2.60;;;32.00;39.60;;;;;;4992696;28;20442;-50
2022/05/18 07:55:00;;;;;;;2.77;2.57;;;32.00;39.60;;;;;;4991359;28;20422;-47
2022/05/18 07:57:27;;;;;;;3.97;2.67;;;32.00;38.50;;;;;;4991345;28;20466;-47
2022/05/18 07:59:59;;;;;;;3.57;3.10;;;32.30;38.40;;;;;;4990999;28;20561;-51
2022/05/18 08:02:30;;;;;;;8.93;3.07;;;32.50;38.00;;;;;;4974040;29;20475;-46
2022/05/18 08:04:57;;;;;;;4.83;3.20;;;33.00;37.20;;;;;;4972712;29;20444;-44
2022/05/18 08:07:24;;;;;;;4.47;3.20;;;33.20;37.30;;;;;;4973135;28;20472;-49
2022/05/18 08:15:21;;;;;;;5.00;2.90;;;33.60;36.30;;;;;;5014033;28;20477;-50
2022/05/18 08:17:49;;;;;;;3.77;2.97;;;34.00;35.60;;;;;;5011367;28;20514;-55
2022/05/18 08:20:20;;;;;;;3.57;3.00;;;33.90;35.90;;;;;;5010967;28;20469;-54
2022/05/18 08:22:47;;;;;;;4.87;4.30;;;33.80;35.80;;;;;;5009818;28;20485;-45
2022/05/18 08:25:15;;;;;;;6.47;3.73;;;34.10;35.90;;;;;;5005181;28;20537;-49
2022/05/18 08:27:42;;;;;;;4.57;3.30;;;34.00;35.90;;;;;;5004791;28;20466;-55
2022/05/18 08:30:11;;;;;;;3.47;3.17;;;34.00;35.90;;;;;;5008576;28;20458;-49
2022/05/18 08:32:39;;;;;;;3.77;3.47;;;34.30;36.00;;;;;;5007366;28;20470;-52
2022/05/18 08:35:07;;;;;;;8.70;3.03;;;34.20;35.90;;;;;;5010291;28;20449;-51
2022/05/18 08:37:39;;;;;;;4.10;3.20;;;33.80;35.80;;;;;;5007194;28;20465;-53
2022/05/18 08:40:08;;;;;;;6.37;3.07;;;33.60;36.40;;;;;;5008367;28;20501;-45
2022/05/18 08:42:35;;;;;;;3.97;3.10;;;33.50;36.50;;;;;;4991013;28;20420;-54
2022/05/18 08:45:02;;;;;;;5.13;2.70;;;33.40;36.50;;;;;;4986221;28;20427;-48
2022/05/18 08:47:40;;;;;;;5.60;3.70;;;33.70;36.60;;;;;;4986102;28;20517;-52
2022/05/18 08:50:12;;;;;;;4.27;3.33;;;33.70;36.70;;;;;;4991266;28;20423;-44
2022/05/18 08:52:58;;;;;;;3.93;3.43;;;33.80;36.30;;;;;;4992026;28;20435;-51
2022/05/18 08:55:45;;;;;;;6.53;3.37;;;33.90;36.50;;;;;;4989046;28;20919;-43
2022/05/18 08:58:15;;;;;;;3.97;2.70;;;34.00;36.20;;;;;;4994438;28;20462;-49
2022/05/18 09:00:45;;;;;;;3.63;3.33;;;33.90;36.00;;;;;;4989288;28;20474;-48
2022/05/18 09:03:16;;;;;;;3.37;3.07;;;33.70;36.10;;;;;;4988680;28;20447;-49
2022/05/18 09:05:49;;;;;;;5.27;3.30;;;33.80;36.20;;;;;;4989215;28;20427;-52
2022/05/18 09:08:21;;;;;;;4.20;3.43;;;34.00;36.30;;;;;;4992110;28;20435;-50
2022/05/18 09:10:58;;;;;;;4.10;3.63;;;34.30;36.30;;;;;;4990710;28;20463;-46
2022/05/18 09:13:25;;;;;;;4.70;3.30;;;34.30;36.10;;;;;;4968770;28;20450;-54
2022/05/18 09:16:02;;;;;;;8.33;3.53;;;34.20;37.00;;;;;;4968605;29;20490;-55
2022/05/18 09:18:38;;;;;;;5.87;3.60;;;34.20;36.50;;;;;;4968898;28;20464;-49
2022/05/18 09:21:17;;;;;;;4.90;3.43;;;34.10;36.20;;;;;;4974026;29;20482;-47
2022/05/18 09:23:58;;;;;;;3.30;3.00;;;34.00;36.90;;;;;;4979770;28;20443;-52
2022/05/18 09:26:54;;;;;;;8.83;3.50;;;33.90;37.30;;;;;;4974726;28;20431;-55
2022/05/18 09:29:27;;;;;;;10.73;3.00;;;33.90;37.40;;;;;;4976350;28;20485;-45
2022/05/18 09:32:07;;;;;;;31.43;7.30;;;34.00;36.50;;;;;;4972740;29;20470;-49
2022/05/18 09:34:54;;;;;;;12.50;4.60;;;34.30;37.00;;;;;;4971578;28;20446;-47
2022/05/18 09:37:37;;;;;;;8.90;4.10;;;34.20;37.30;;;;;;4981060;28;20445;-47
2022/05/18 09:40:10;;;;;;;6.30;4.07;;;34.30;37.40;;;;;;4974387;28;20531;-45
2022/05/18 09:42:42;;;;;;;9.43;4.50;;;34.30;37.10;;;;;;4970597;28;20443;-51
2022/05/18 09:45:13;;;;;;;6.10;4.30;;;34.30;37.70;;;;;;4981012;28;20471;-49
2022/05/18 09:47:44;;;;;;;10.83;3.93;;;34.10;37.50;;;;;;4992916;28;20430;-54
2022/05/18 09:50:12;;;;;;;4.17;3.70;;;34.40;38.20;;;;;;4985668;28;20888;-52
2022/05/18 09:52:43;;;;;;;4.00;3.40;;;34.30;38.10;;;;;;4998052;28;20451;-52
2022/05/18 09:55:14;;;;;;;4.10;3.70;;;34.30;37.80;;;;;;4998356;28;20442;-49
2022/05/18 09:57:46;;;;;;;5.10;4.60;;;34.00;38.30;;;;;;4998251;28;20454;-43
2022/05/18 10:00:16;;;;;;;6.90;3.90;;;34.00;38.10;;;;;;4996968;28;20471;-49
2022/05/18 10:08:21;;;;;;;4.53;3.97;;;33.90;39.30;;;;;;4988204;28;20426;-46
2022/05/18 10:10:53;;;;;;;5.57;3.80;;;34.10;39.10;;;;;;4991760;28;20518;-51
2022/05/18 10:13:29;;;;;;;4.30;3.90;;;33.60;39.70;;;;;;4990759;28;20416;-49
2022/05/18 10:16:14;;;;;;;5.47;4.27;;;33.20;41.10;;;;;;4994821;28;20474;-50
2022/05/18 10:18:45;;;;;;;7.53;4.50;;;33.10;40.90;;;;;;4994199;28;20426;-56
2022/05/18 10:21:26;;;;;;;6.97;4.37;;;33.20;40.50;;;;;;4996745;28;20466;-48
2022/05/18 10:24:02;;;;;;;4.53;4.13;;;33.20;40.90;;;;;;4992739;28;20485;-50
2022/05/18 10:26:31;;;;;;;4.70;4.30;;;33.10;41.30;;;;;;4993850;28;20552;-46
2022/05/18 10:29:01;;;;;;;5.00;4.10;;;32.90;41.20;;;;;;4993659;28;20442;-53
2022/05/18 10:31:32;;;;;;;7.70;5.37;;;32.70;41.90;;;;;;4993472;28;20446;-45
2022/05/18 10:34:25;;;;;;;5.17;4.67;;;32.40;42.80;;;;;;4993287;28;20426;-51
2022/05/18 10:36:57;;;;;;;6.50;5.80;;;32.20;42.80;;;;;;4990195;28;20505;-51
2022/05/18 10:39:37;;;;;;;7.13;6.40;;;31.70;43.80;;;;;;4995093;28;20477;-46
2022/05/18 10:42:10;;;;;;;8.13;5.47;;;31.30;45.10;;;;;;4989436;28;20411;-50
2022/05/18 10:44:38;;;;;;;9.07;7.10;;;31.20;44.90;;;;;;4990023;28;20474;-45
2022/05/18 10:47:19;;;;;;;10.70;5.57;;;30.90;45.50;;;;;;4989877;28;20458;-47
2022/05/18 10:49:46;;;;;;;11.33;6.70;;;30.60;46.20;;;;;;4990292;28;20471;-53
2022/05/18 10:52:15;;;;;;;8.90;6.80;;;30.40;47.50;;;;;;4990992;28;20466;-51
2022/05/18 10:54:55;;;;;;;12.67;5.90;;;30.00;46.70;;;;;;4989081;28;20450;-50
2022/05/18 10:57:31;;;;;;;10.10;6.20;;;29.40;47.60;;;;;;4991199;28;20454;-42
2022/05/18 11:00:05;;;;;;;10.90;6.40;;;29.30;48.60;;;;;;4991768;28;20518;-46
2022/05/18 11:02:40;;;;;;;5.40;4.90;;;28.90;48.80;;;;;;4995528;28;20443;-44
2022/05/18 11:05:20;;;;;;;6.00;5.40;;;28.80;49.30;;;;;;4995657;28;20488;-41
2022/05/18 11:07:47;;;;;;;6.33;5.73;;;28.90;49.90;;;;;;4998060;28;20427;-54
2022/05/18 11:10:16;;;;;;;6.33;5.77;;;28.80;48.80;;;;;;4997101;28;20478;-51
2022/05/18 11:12:48;;;;;;;5.00;4.47;;;28.50;49.60;;;;;;4997953;28;20518;-51
2022/05/18 11:15:24;;;;;;;4.80;4.40;;;28.30;48.40;;;;;;4997506;28;20482;-43
2022/05/18 11:18:04;;;;;;;4.77;4.27;;;28.20;48.20;;;;;;4997322;28;20450;-48
2022/05/18 11:20:38;;;;;;;5.70;4.73;;;28.20;48.30;;;;;;4997367;28;20490;-49
2022/05/18 11:23:19;;;;;;;4.80;4.40;;;28.10;48.60;;;;;;4997771;28;20427;-47
2022/05/18 11:25:58;;;;;;;6.23;4.60;;;28.10;49.10;;;;;;4996374;28;20490;-46
2022/05/18 11:28:35;;;;;;;6.47;4.47;;;28.10;49.60;;;;;;4997234;28;20427;-47
2022/05/18 11:31:20;;;;;;;6.37;5.77;;;28.10;48.70;;;;;;4997205;28;20502;-43
2022/05/18 11:33:59;;;;;;;6.37;5.70;;;28.00;48.90;;;;;;4996264;28;20427;-41
2022/05/18 11:36:35;;;;;;;8.00;5.10;;;28.00;49.80;;;;;;4997477;28;20501;-50
2022/05/18 11:39:10;;;;;;;5.50;4.10;;;27.90;48.10;;;;;;4997423;28;20426;-45
2022/05/18 11:41:54;;;;;;;5.93;4.73;;;27.80;49.10;;;;;;4997311;28;20474;-48
2022/05/18 11:44:29;;;;;;;4.97;4.50;;;27.80;49.70;;;;;;4996818;28;20434;-45
2022/05/18 11:47:23;;;;;;;6.23;4.40;;;27.90;49.80;;;;;;4996643;28;20470;-49
2022/05/18 11:49:58;;;;;;;8.00;4.40;;;27.80;50.00;;;;;;4996715;28;20423;-52
2022/05/18 11:52:43;;;;;;;4.90;4.43;;;27.90;51.00;;;;;;4997162;28;20477;-46
2022/05/18 11:55:25;;;;;;;8.03;4.83;;;27.60;49.60;;;;;;4997244;28;20443;-54
2022/05/18 11:58:02;;;;;;;5.47;4.20;;;27.10;50.30;;;;;;4997181;28;20863;-49
2022/05/18 12:00:46;;;;;;;5.40;4.80;;;26.90;51.00;;;;;;4996809;28;20470;-46
2022/05/18 12:03:36;;;;;;;5.13;4.50;;;26.80;51.50;;;;;;4996234;28;20493;-47
2022/05/18 12:06:23;;;;;;;10.77;5.07;;;26.60;51.60;;;;;;4996686;28;20450;-45
2022/05/18 12:09:13;;;;;;;5.10;3.90;;;26.30;51.60;;;;;;4996264;28;20439;-53
2022/05/18 12:11:51;;;;;;;5.47;4.40;;;26.20;52.30;;;;;;4995953;28;20450;-50
2022/05/18 12:14:32;;;;;;;4.70;4.30;;;26.30;52.90;;;;;;4995913;28;20491;-47
2022/05/18 12:17:06;;;;;;;5.20;4.40;;;26.30;52.20;;;;;;4996337;28;20427;-48
2022/05/18 12:19:39;;;;;;;4.83;4.33;;;26.20;52.30;;;;;;4996597;28;20474;-47
2022/05/18 12:22:09;;;;;;;5.00;4.00;;;26.20;52.80;;;;;;4996370;28;20474;-48
2022/05/18 12:24:37;;;;;;;5.10;4.60;;;26.20;53.80;;;;;;4996258;28;20466;-52
2022/05/18 12:27:05;;;;;;;6.80;5.83;;;26.30;53.10;;;;;;4996214;28;20451;-48
2022/05/18 12:29:36;;;;;;;10.33;4.83;;;26.40;52.90;;;;;;4995855;28;20569;-39
2022/05/18 12:32:05;;;;;;;5.00;4.60;;;26.30;53.30;;;;;;4989664;28;20424;-40
2022/05/18 12:34:44;;;;;;;7.67;4.93;;;26.40;52.40;;;;;;4994688;28;20455;-46
2022/05/18 12:37:23;;;;;;;5.70;4.40;;;26.50;52.80;;;;;;4995258;28;20442;-44
2022/05/18 12:40:03;;;;;;;4.73;4.23;;;26.50;52.10;;;;;;4995645;28;20501;-51
2022/05/18 12:42:36;;;;;;;4.90;4.50;;;26.40;52.40;;;;;;4995857;28;20442;-50
2022/05/18 12:45:13;;;;;;;5.53;4.30;;;26.40;52.30;;;;;;4995843;28;20442;-48
2022/05/18 12:47:45;;;;;;;4.63;4.23;;;26.40;52.20;;;;;;4996510;28;20451;-42
2022/05/18 12:50:16;;;;;;;6.80;4.90;;;26.20;52.20;;;;;;4996134;28;20466;-49
2022/05/18 12:52:52;;;;;;;6.57;4.93;;;26.20;52.70;;;;;;4995610;28;20535;-47
2022/05/18 12:55:29;;;;;;;5.70;4.83;;;26.30;53.80;;;;;;4995873;28;20430;-47
2022/05/18 12:58:07;;;;;;;4.97;4.47;;;26.40;53.20;;;;;;4995734;28;20434;-44
2022/05/18 13:00:52;;;;;;;6.83;4.77;;;26.40;53.40;;;;;;4995381;28;20470;-49
2022/05/18 13:03:48;;;;;;;6.30;4.57;;;26.50;52.90;;;;;;4995501;28;20407;-48
2022/05/18 13:06:18;;;;;;;5.03;4.53;;;26.40;53.10;;;;;;4996925;28;20520;-52
2022/05/18 13:09:39;;;;;;;5.07;4.67;;;26.40;53.10;;;;;;5014772;28;20446;-53
2022/05/18 13:12:30;;;;;;;7.13;5.10;;;26.30;53.70;;;;;;5014120;28;20445;-52
2022/05/18 13:15:00;;;;;;;4.70;4.30;;;26.30;53.80;;;;;;5014810;28;20513;-50
2022/05/18 13:17:48;;;;;;;5.47;4.97;;;26.20;53.90;;;;;;5014848;28;20525;-48
2022/05/18 13:20:40;;;;;;;4.90;4.40;;;26.20;53.70;;;;;;5006667;28;20597;-49
2022/05/18 13:23:13;;;;;;;8.60;4.80;;;26.10;54.10;;;;;;5014983;28;20509;-47
2022/05/18 13:25:50;;;;;;;6.43;5.80;;;26.00;54.40;;;;;;5015201;28;20485;-47
2022/05/18 13:28:19;;;;;;;6.53;4.77;;;25.90;54.40;;;;;;5014972;28;20426;-42
2022/05/18 13:30:48;;;;;;;7.00;5.20;;;26.00;54.70;;;;;;5014460;28;20462;-45
2022/05/18 13:33:17;;;;;;;6.27;5.10;;;26.10;54.70;;;;;;5014684;28;20477;-46
2022/05/18 13:35:47;;;;;;;5.50;5.00;;;26.30;54.70;;;;;;5014438;28;20552;-53
2022/05/18 13:38:21;;;;;;;7.80;5.67;;;26.20;54.20;;;;;;5014473;28;20438;-48
2022/05/18 13:40:53;;;;;;;6.80;4.80;;;26.20;54.60;;;;;;5012202;28;20486;-47
2022/05/18 13:43:21;;;;;;;6.03;4.97;;;26.30;54.40;;;;;;5013977;28;20437;-47
2022/05/18 13:45:54;;;;;;;5.20;4.70;;;26.20;53.80;;;;;;5013991;28;20442;-44
2022/05/18 13:48:29;;;;;;;6.63;5.23;;;26.20;53.60;;;;;;5013935;28;20470;-53
2022/05/18 13:50:58;;;;;;;11.10;5.13;;;26.10;53.70;;;;;;5013878;28;20429;-43
2022/05/18 13:53:29;;;;;;;5.63;4.53;;;26.10;54.10;;;;;;5013586;28;20450;-48
2022/05/18 13:55:58;;;;;;;7.53;5.20;;;26.10;53.70;;;;;;5014091;28;20430;-45
2022/05/18 13:58:27;;;;;;;4.60;4.20;;;26.10;53.80;;;;;;5014374;28;20485;-45
2022/05/18 14:00:58;;;;;;;4.83;4.33;;;26.10;53.20;;;;;;5014158;28;20481;-56
2022/05/18 14:03:31;;;;;;;5.10;4.60;;;26.10;53.40;;;;;;5013591;28;20484;-50
2022/05/18 14:06:08;;;;;;;6.57;5.00;;;26.10;53.30;;;;;;5015110;28;20426;-48
2022/05/18 14:08:37;;;;;;;5.60;4.37;;;26.10;53.00;;;;;;5017614;28;20465;-43
2022/05/18 14:11:08;;;;;;;4.80;3.97;;;26.20;52.50;;;;;;5016995;28;20509;-50
2022/05/18 14:13:35;;;;;;;4.97;4.07;;;26.30;52.80;;;;;;5017355;28;20442;-43
2022/05/18 14:16:03;;;;;;;9.70;4.90;;;26.50;53.20;;;;;;5017349;28;20446;-48
2022/05/18 14:18:36;;;;;;;7.93;4.47;;;26.60;52.70;;;;;;5016806;28;20457;-41
2022/05/18 14:21:09;;;;;;;6.07;4.23;;;26.80;52.50;;;;;;5016929;28;20473;-50
2022/05/18 14:23:44;;;;;;;5.80;4.37;;;26.90;52.50;;;;;;5017229;28;20453;-49
2022/05/18 14:26:14;;;;;;;8.50;5.23;;;26.90;52.10;;;;;;5016744;28;20516;-48
2022/05/18 14:28:46;;;;;;;5.73;4.87;;;26.80;52.30;;;;;;5017393;28;20454;-47
2022/05/18 14:31:16;;;;;;;9.87;5.07;;;26.70;52.80;;;;;;5017350;28;20450;-47
2022/05/18 14:33:49;;;;;;;4.77;4.37;;;26.60;52.70;;;;;;5016788;28;20426;-46
2022/05/18 14:36:24;;;;;;;7.23;4.40;;;26.60;52.90;;;;;;5016669;28;20430;-46
2022/05/18 14:38:55;;;;;;;5.10;4.70;;;26.70;53.30;;;;;;5017356;28;20434;-43
2022/05/18 14:41:22;;;;;;;10.20;5.50;;;26.70;53.10;;;;;;5017030;28;20501;-47
2022/05/18 14:43:49;;;;;;;6.40;5.33;;;26.60;53.30;;;;;;5017216;28;20453;-54
2022/05/18 14:46:22;;;;;;;5.47;5.00;;;26.50;53.40;;;;;;5017575;28;20462;-50
2022/05/18 14:49:06;;;;;;;10.67;5.07;;;26.50;53.80;;;;;;5017759;28;20542;-38
2022/05/18 14:51:45;;;;;;;5.50;4.90;;;26.50;53.60;;;;;;4978877;29;20420;-53
2022/05/18 14:54:18;;;;;;;6.97;4.50;;;26.50;53.60;;;;;;4978843;28;20503;-45
2022/05/18 14:56:50;;;;;;;6.30;5.70;;;26.40;53.70;;;;;;4979206;28;20443;-45
2022/05/18 14:59:20;;;;;;;9.10;5.00;;;26.40;54.00;;;;;;4978895;28;20463;-43
2022/05/18 15:01:50;;;;;;;8.50;4.70;;;26.40;54.20;;;;;;4978687;28;20554;-47
2022/05/18 15:04:24;;;;;;;6.23;5.63;;;26.40;54.50;;;;;;4978116;28;20476;-49
2022/05/18 15:06:57;;;;;;;4.83;4.33;;;26.40;54.40;;;;;;4977564;28;20459;-47
2022/05/18 15:09:35;;;;;;;7.17;4.13;;;26.40;54.70;;;;;;4977426;28;20475;-51
2022/05/18 15:12:05;;;;;;;6.67;5.30;;;26.40;54.60;;;;;;4978052;28;20599;-50
2022/05/18 15:14:39;;;;;;;5.40;5.00;;;26.30;54.40;;;;;;4978455;28;20459;-51
2022/05/18 15:17:16;;;;;;;5.73;5.23;;;26.30;54.80;;;;;;4978389;28;20436;-43
2022/05/18 15:19:47;;;;;;;5.47;4.23;;;26.20;54.80;;;;;;4979408;28;20471;-51
2022/05/18 15:22:16;;;;;;;5.13;4.67;;;26.20;54.90;;;;;;4979463;28;20452;-48
2022/05/18 15:24:43;;;;;;;7.37;5.00;;;26.20;55.50;;;;;;4992933;28;20561;-54
2022/05/18 15:27:26;;;;;;;5.37;4.87;;;26.20;54.90;;;;;;4984186;28;20451;-53
2022/05/18 15:30:00;;;;;;;5.23;4.67;;;26.20;55.80;;;;;;4983111;28;20862;-55
2022/05/18 15:32:29;;;;;;;5.00;4.50;;;26.20;55.20;;;;;;4981292;28;20493;-55
2022/05/18 15:35:00;;;;;;;5.97;4.37;;;26.10;55.40;;;;;;4978889;28;20482;-55
2022/05/18 15:37:28;;;;;;;5.73;5.10;;;26.10;55.30;;;;;;4979357;28;20435;-57
2022/05/18 15:39:54;;;;;;;5.33;4.80;;;26.10;55.30;;;;;;4981518;28;20964;-55
2022/05/18 15:42:23;;;;;;;8.83;4.73;;;26.10;55.50;;;;;;4986752;28;20804;-54
2022/05/18 15:44:50;;;;;;;5.03;4.53;;;26.20;55.30;;;;;;4987008;28;20461;-52
2022/05/18 15:47:21;;;;;;;5.13;4.40;;;26.20;55.10;;;;;;4993267;28;20439;-46
2022/05/18 15:49:54;;;;;;;6.10;5.50;;;26.20;55.10;;;;;;4983338;28;20491;-45
2022/05/18 15:52:23;;;;;;;8.60;4.93;;;26.10;55.20;;;;;;4978253;29;20437;-46
2022/05/18 15:54:53;;;;;;;5.43;4.97;;;26.00;55.50;;;;;;4978343;29;20447;-54
2022/05/18 15:57:22;;;;;;;6.80;4.50;;;26.00;55.50;;;;;;4978860;29;20443;-50
2022/05/18 15:59:49;;;;;;;7.10;4.73;;;25.90;55.30;;;;;;4978902;29;20482;-44
2022/05/18 16:02:15;;;;;;;5.20;4.40;;;25.90;55.30;;;;;;4978340;29;20475;-51
2022/05/18 16:04:42;;;;;;;5.07;4.60;;;25.90;55.50;;;;;;4977770;29;20452;-49
2022/05/18 16:07:09;;;;;;;5.10;4.70;;;25.90;55.80;;;;;;4977762;29;20467;-53
2022/05/18 16:09:38;;;;;;;5.33;4.83;;;25.80;55.70;;;;;;4978345;28;20471;-48
2022/05/18 16:12:06;;;;;;;7.80;5.77;;;25.80;55.90;;;;;;4977899;29;20476;-44
2022/05/18 16:14:32;;;;;;;5.47;4.93;;;25.90;56.50;;;;;;4977639;28;20444;-49
2022/05/18 16:16:59;;;;;;;6.63;5.93;;;25.90;55.80;;;;;;4977565;29;20499;-51
2022/05/18 16:19:26;;;;;;;6.87;4.80;;;25.80;55.60;;;;;;4977578;29;20464;-49
2022/05/18 16:21:53;;;;;;;5.60;5.07;;;25.70;55.70;;;;;;4977256;29;20523;-43
2022/05/18 16:24:24;;;;;;;5.20;4.70;;;25.70;56.10;;;;;;4977626;29;20452;-53
2022/05/18 16:26:55;;;;;;;5.70;5.10;;;25.60;56.00;;;;;;4977328;29;20491;-51
2022/05/18 16:29:27;;;;;;;6.17;5.47;;;25.60;55.80;;;;;;4977237;28;20467;-47
2022/05/18 16:31:55;;;;;;;7.03;4.60;;;25.60;56.20;;;;;;4977089;29;20459;-45
2022/05/18 16:34:22;;;;;;;5.60;4.90;;;25.60;56.20;;;;;;4977437;29;20432;-47
2022/05/18 16:36:49;;;;;;;7.30;5.27;;;25.60;56.30;;;;;;4977171;29;20484;-50
2022/05/18 16:39:16;;;;;;;5.47;4.97;;;25.60;56.40;;;;;;4977264;29;20464;-51
2022/05/18 16:41:44;;;;;;;8.17;4.50;;;25.60;56.10;;;;;;4976871;29;20488;-46
2022/05/18 16:44:14;;;;;;;6.70;4.70;;;25.50;56.40;;;;;;4976760;28;20459;-51
2022/05/18 16:46:44;;;;;;;5.90;5.40;;;25.50;56.40;;;;;;4976102;29;20519;-49
2022/05/18 16:49:11;;;;;;;6.27;5.67;;;25.50;56.60;;;;;;4975841;29;20448;-51
2022/05/18 16:51:39;;;;;;;5.10;4.67;;;25.50;56.70;;;;;;4976098;29;20440;-46
2022/05/18 16:54:06;;;;;;;5.73;5.23;;;25.40;56.70;;;;;;4976407;29;20460;-55
2022/05/18 16:56:34;;;;;;;7.20;6.40;;;25.30;56.60;;;;;;4976627;29;20451;-42
2022/05/18 16:59:02;;;;;;;5.63;4.50;;;25.20;56.90;;;;;;4977007;28;20440;-51
2022/05/18 17:01:30;;;;;;;5.67;4.63;;;25.20;57.00;;;;;;4976164;29;20519;-36
2022/05/18 17:03:57;;;;;;;5.80;4.67;;;25.20;56.90;;;;;;4976675;28;20488;-47
2022/05/18 17:06:25;;;;;;;6.90;4.70;;;25.10;56.80;;;;;;4976500;29;20448;-51
2022/05/18 17:08:54;;;;;;;11.40;5.47;;;25.10;56.80;;;;;;4976556;29;20468;-48
2022/05/18 17:11:27;;;;;;;7.07;4.40;;;25.00;56.90;;;;;;4976548;29;20468;-47
2022/05/18 17:13:55;;;;;;;5.83;4.50;;;25.00;56.90;;;;;;4977044;28;20464;-46
2022/05/18 17:16:24;;;;;;;4.83;4.43;;;24.90;56.80;;;;;;4976656;29;20424;-55
2022/05/18 17:18:53;;;;;;;5.63;4.87;;;24.80;56.90;;;;;;4976523;29;20468;-48
2022/05/18 17:21:23;;;;;;;5.60;4.83;;;24.80;57.30;;;;;;4976332;29;20479;-50
2022/05/18 17:23:50;;;;;;;6.70;4.50;;;24.80;57.50;;;;;;4976519;29;20503;-50
2022/05/18 17:26:20;;;;;;;5.30;4.80;;;24.80;57.60;;;;;;4976132;29;20428;-50
2022/05/18 17:28:50;;;;;;;14.67;10.00;;;24.80;57.70;;;;;;4975859;29;20500;-47
2022/05/18 17:31:17;;;;;;;9.07;7.50;;;24.90;57.70;;;;;;4976523;29;20463;-45
2022/05/18 17:33:44;;;;;;;9.07;6.00;;;24.90;57.60;;;;;;4975856;29;20454;-49
2022/05/18 17:36:15;;;;;;;7.27;6.10;;;24.90;57.70;;;;;;4975737;29;20440;-48
2022/05/18 17:38:42;;;;;;;5.70;4.57;;;24.80;57.40;;;;;;4975739;29;20439;-45
2022/05/18 17:41:09;;;;;;;5.53;4.77;;;24.80;57.20;;;;;;4976844;28;20514;-47
2022/05/18 17:43:37;;;;;;;7.30;4.83;;;24.70;57.40;;;;;;4978066;29;20448;-45
2022/05/18 17:46:05;;;;;;;6.10;4.80;;;24.60;57.60;;;;;;4987475;28;20489;-46
2022/05/18 17:48:32;;;;;;;8.70;4.93;;;24.50;57.30;;;;;;4999665;28;20442;-51
2022/05/18 17:51:00;;;;;;;5.17;4.67;;;24.50;57.30;;;;;;4999500;28;20450;-46
2022/05/18 17:53:29;;;;;;;5.67;5.17;;;24.40;57.50;;;;;;4999735;28;20489;-51
2022/05/18 17:55:56;;;;;;;6.37;5.30;;;24.40;57.30;;;;;;4999591;28;20479;-47
2022/05/18 17:58:23;;;;;;;5.53;4.80;;;24.40;57.20;;;;;;4988188;28;20435;-50
2022/05/18 18:00:51;;;;;;;6.30;5.10;;;24.40;57.20;;;;;;4991552;28;20467;-49
2022/05/18 18:03:25;;;;;;;7.80;4.57;;;24.30;57.10;;;;;;4983216;28;20455;-49
2022/05/18 18:05:53;;;;;;;9.40;5.60;;;24.30;57.10;;;;;;4983904;28;20454;-47
2022/05/18 18:08:20;;;;;;;6.17;4.80;;;24.20;57.00;;;;;;4990909;28;20459;-46
2022/05/18 18:10:49;;;;;;;6.00;5.40;;;24.20;57.10;;;;;;4979333;28;20474;-45
2022/05/18 18:13:15;;;;;;;9.70;6.80;;;24.10;57.20;;;;;;4987640;28;20508;-54
2022/05/18 18:15:44;;;;;;;7.00;5.80;;;24.10;57.40;;;;;;4978473;28;20502;-42
2022/05/18 18:18:12;;;;;;;6.53;5.87;;;24.00;57.40;;;;;;4992310;28;20445;-48
2022/05/18 18:20:42;;;;;;;6.07;5.20;;;24.00;57.50;;;;;;4989956;28;20496;-47
2022/05/18 18:23:12;;;;;;;6.33;5.60;;;24.00;57.50;;;;;;4998851;28;20463;-53
2022/05/18 18:25:39;;;;;;;5.37;4.90;;;23.90;57.70;;;;;;4999243;28;20479;-43
2022/05/18 18:28:07;;;;;;;6.13;4.90;;;23.80;57.70;;;;;;4999259;28;20462;-48
2022/05/18 18:30:34;;;;;;;7.37;4.80;;;23.80;57.80;;;;;;4998757;28;20430;-49
2022/05/18 18:33:07;;;;;;;5.70;5.00;;;23.80;57.90;;;;;;4998743;28;20918;-51
2022/05/18 18:35:37;;;;;;;7.27;6.43;;;23.70;57.90;;;;;;4988152;28;20471;-49
2022/05/18 18:38:04;;;;;;;6.33;5.37;;;23.60;57.80;;;;;;4998845;28;20447;-45
2022/05/18 18:40:35;;;;;;;6.80;5.60;;;23.60;58.20;;;;;;4997178;28;20471;-46
2022/05/18 18:43:04;;;;;;;9.07;6.43;;;23.50;58.30;;;;;;4989038;28;20479;-47
2022/05/18 18:48:14;;;;;;;6.40;5.60;;;23.40;58.40;;;;;;4994281;28;20518;-49
2022/05/18 18:56:11;;;;;;;6.00;5.30;;;23.30;58.90;;;;;;4993654;28;20439;-47
2022/05/18 18:58:40;;;;;;;9.13;6.50;;;23.30;59.20;;;;;;4982202;28;20471;-53
2022/05/18 19:01:08;;;;;;;10.37;5.93;;;23.20;59.90;;;;;;4978806;29;20444;-54
2022/05/18 19:03:35;;;;;;;7.43;5.70;;;23.20;59.40;;;;;;4988643;28;20478;-45
2022/05/18 19:06:02;;;;;;;8.90;6.10;;;23.20;59.60;;;;;;5000938;28;20492;-47
2022/05/18 19:08:30;;;;;;;8.40;6.00;;;23.10;59.50;;;;;;4997982;28;20451;-50
2022/05/18 19:10:57;;;;;;;8.30;6.80;;;23.10;59.50;;;;;;4997325;28;20443;-48
2022/05/18 19:13:24;;;;;;;5.90;5.10;;;23.10;59.70;;;;;;4992387;28;20461;-46
2022/05/18 19:15:52;;;;;;;5.53;4.47;;;23.00;59.70;;;;;;4986133;28;20443;-49
2022/05/18 19:18:20;;;;;;;8.00;5.40;;;23.00;59.80;;;;;;4986269;28;20459;-44
2022/05/18 19:20:50;;;;;;;9.80;6.47;;;22.90;59.80;;;;;;4985498;28;20439;-47
2022/05/18 19:23:21;;;;;;;7.37;6.10;;;22.90;60.00;;;;;;4984855;28;20491;-52
2022/05/18 19:25:48;;;;;;;7.67;6.10;;;22.80;60.10;;;;;;4986497;28;20463;-49
2022/05/18 19:28:16;;;;;;;17.40;8.40;;;22.70;60.20;;;;;;4985013;28;20449;-47
2022/05/18 19:30:45;;;;;;;9.57;8.43;;;22.70;60.60;;;;;;4982222;28;20490;-47
2022/05/18 19:33:12;;;;;;;14.33;8.40;;;22.60;60.80;;;;;;4978163;29;20452;-46
2022/05/18 19:35:40;;;;;;;10.10;6.93;;;22.60;60.80;;;;;;4978668;28;20443;-47
2022/05/18 19:38:07;;;;;;;7.10;5.80;;;22.60;61.00;;;;;;4978246;29;20448;-52
2022/05/18 19:40:34;;;;;;;38.50;27.00;;;22.60;61.00;;;;;;4977956;29;20476;-52
2022/05/18 19:43:03;;;;;;;10.27;7.10;;;22.50;61.40;;;;;;4978317;28;20491;-47
2022/05/18 19:45:31;;;;;;;11.77;8.47;;;22.50;61.40;;;;;;4978128;29;20483;-46
2022/05/18 19:47:58;;;;;;;7.00;6.30;;;22.50;61.70;;;;;;4978098;28;20491;-46
2022/05/18 19:50:30;;;;;;;11.10;6.70;;;22.40;61.40;;;;;;4978028;29;20455;-46
2022/05/18 19:52:59;;;;;;;11.27;6.77;;;22.40;61.30;;;;;;4978039;29;20431;-54
2022/05/18 19:55:28;;;;;;;9.60;7.90;;;22.30;61.70;;;;;;4977984;28;20452;-51
2022/05/18 19:57:56;;;;;;;14.40;7.27;;;22.30;62.40;;;;;;4978200;29;20478;-45
2022/05/18 20:00:26;;;;;;;6.37;5.73;;;22.30;62.50;;;;;;4977700;29;20508;-46
2022/05/18 20:02:53;;;;;;;7.60;6.20;;;22.30;62.00;;;;;;4977221;28;20467;-45
2022/05/18 20:05:22;;;;;;;10.23;6.10;;;22.30;62.10;;;;;;4977322;29;20460;-45
2022/05/18 20:07:49;;;;;;;7.30;6.13;;;22.30;62.00;;;;;;4978186;29;20443;-47
2022/05/18 20:10:23;;;;;;;10.13;6.73;;;22.20;61.70;;;;;;4977753;28;20471;-48
2022/05/18 20:12:51;;;;;;;6.47;5.57;;;22.20;62.60;;;;;;4977809;29;20463;-48
2022/05/18 20:15:19;;;;;;;9.50;6.87;;;22.20;62.30;;;;;;4977258;29;20444;-45
2022/05/18 20:17:47;;;;;;;11.53;6.70;;;22.10;62.90;;;;;;4978121;29;20504;-51
2022/05/18 20:20:13;;;;;;;8.93;6.47;;;22.10;62.50;;;;;;4977568;29;20894;-52
2022/05/18 20:22:40;;;;;;;7.67;6.40;;;22.10;62.90;;;;;;4977027;29;20491;-49
2022/05/18 20:25:07;;;;;;;9.40;5.83;;;22.00;62.20;;;;;;4977202;29;20448;-51
2022/05/18 20:27:38;;;;;;;7.00;5.87;;;22.00;62.10;;;;;;4977421;29;20448;-44
2022/05/18 20:30:05;;;;;;;8.63;6.10;;;22.00;63.20;;;;;;4977204;29;20447;-47
2022/05/18 20:32:32;;;;;;;6.67;5.97;;;21.90;62.20;;;;;;4976988;29;20496;-49
2022/05/18 20:34:59;;;;;;;9.23;6.40;;;21.90;62.70;;;;;;4977186;29;20659;-41